Edgar Oldendorff — CQYN — position and weather

sailwx.info

Track history (hours):
 
Tides and Currents Weather Stations Pressure Air Temp Water Temp Dewpoint Dewpoint Depression Visibility Wind Speed Wind Dir Waves Ship Positions

Edgar Oldendorff

Last reported at 2018-Apr-15 17:25 UTC. Time now 2018-Apr-25 06:55 UTC.
Position N 19°24' E 063°26'.
Warning: this ship's position is 9 days out of date.

Length 179 m; draft 9.7 m.

Type: Cargo ship. MMSI: 255805893.

Date/timePositionNaut miles runAvg speedWind from/ knotsBaromVisibWave heightAir tempDewpointWater temp
2018-Apr-15 17:25N 19°24' E 063°26'613.3
2018-Apr-15 16:57N 19°20' E 063°30'1513.3
2018-Apr-15 15:49N 19°08' E 063°40'413.3
2018-Apr-15 15:29N 19°05' E 063°43'613.0
2018-Apr-15 15:00N 18°60' E 063°47'812.9
2018-Apr-15 14:24N 18°54' E 063°52'912.9
2018-Apr-15 13:41N 18°46' E 063°58'312.9
2018-Apr-15 13:28N 18°44' E 064°00'713.1
2018-Apr-15 12:57N 18°39' E 064°05'1813.0
2018-Apr-15 11:35N 18°26' E 064°17'412.8
2018-Apr-15 11:16N 18°23' E 064°20'812.9
2018-Apr-15 10:39N 18°17' E 064°25'213.2
2018-Apr-15 10:29N 18°15' E 064°27'713.3
2018-Apr-15 10:00N 18°10' E 064°31'713.6
2018-Apr-15 09:30N 18°04' E 064°35'814.1
2018-Apr-15 08:54N 17°58' E 064°41'614.2
2018-Apr-15 08:28N 17°53' E 064°45'814.0
2018-Apr-15 07:52N 17°47' E 064°51'613.8
2018-Apr-15 07:25N 17°42' E 064°55'1013.8
2018-Apr-15 06:40N 17°34' E 065°02'313.8
2018-Apr-15 06:25N 17°31' E 065°04'14513.7
2018-Apr-14 19:50N 15°39' E 066°41'513.5
2018-Apr-14 19:28N 15°35' E 066°44'713.9
2018-Apr-14 18:59N 15°30' E 066°49'714.1
2018-Apr-14 18:30N 15°25' E 066°53'714.3
2018-Apr-14 17:59N 15°19' E 066°58'814.0
2018-Apr-14 17:24N 15°13' E 067°03'513.7
2018-Apr-14 17:01N 15°09' E 067°07'713.6
2018-Apr-14 16:31N 15°04' E 067°11'8713.7
2018-Apr-14 10:10N 13°57' E 068°09'1914.2
2018-Apr-14 08:51N 13°43' E 068°21'714.1
2018-Apr-14 08:23N 13°38' E 068°25'914.1
2018-Apr-14 07:46N 13°31' E 068°31'414.1
2018-Apr-14 07:30N 13°28' E 068°33'1114.1
2018-Apr-14 06:44N 13°19' E 068°40'314.0
2018-Apr-14 06:29N 13°17' E 068°43'  
Track history (hours):
 
Tides and Currents Weather Stations Pressure Air Temp Water Temp Dewpoint Dewpoint Depression Visibility Wind Speed Wind Dir Waves Ship Positions

Edgar Oldendorff

Last reported at 2018-Apr-15 17:25 UTC. Time now 2018-Apr-25 06:55 UTC.
Position N 19°24' E 063°26'.
Warning: this ship's position is 9 days out of date.

Length 179 m; draft 9.7 m.

Type: Cargo ship. MMSI: 255805893.

Date/timePositionNaut miles runAvg speedWind from/ knotsBaromVisibWave heightAir tempDewpointWater temp
2018-Apr-15 17:25N 19°24' E 063°26'613.3
2018-Apr-15 16:57N 19°20' E 063°30'1513.3
2018-Apr-15 15:49N 19°08' E 063°40'413.3
2018-Apr-15 15:29N 19°05' E 063°43'613.0
2018-Apr-15 15:00N 18°60' E 063°47'812.9
2018-Apr-15 14:24N 18°54' E 063°52'912.9
2018-Apr-15 13:41N 18°46' E 063°58'312.9
2018-Apr-15 13:28N 18°44' E 064°00'713.1
2018-Apr-15 12:57N 18°39' E 064°05'1813.0
2018-Apr-15 11:35N 18°26' E 064°17'412.8
2018-Apr-15 11:16N 18°23' E 064°20'812.9
2018-Apr-15 10:39N 18°17' E 064°25'213.2
2018-Apr-15 10:29N 18°15' E 064°27'713.3
2018-Apr-15 10:00N 18°10' E 064°31'713.6
2018-Apr-15 09:30N 18°04' E 064°35'814.1
2018-Apr-15 08:54N 17°58' E 064°41'614.2
2018-Apr-15 08:28N 17°53' E 064°45'814.0
2018-Apr-15 07:52N 17°47' E 064°51'613.8
2018-Apr-15 07:25N 17°42' E 064°55'1013.8
2018-Apr-15 06:40N 17°34' E 065°02'313.8
2018-Apr-15 06:25N 17°31' E 065°04'14513.7
2018-Apr-14 19:50N 15°39' E 066°41'513.5
2018-Apr-14 19:28N 15°35' E 066°44'713.9
2018-Apr-14 18:59N 15°30' E 066°49'714.1
2018-Apr-14 18:30N 15°25' E 066°53'714.3
2018-Apr-14 17:59N 15°19' E 066°58'814.0
2018-Apr-14 17:24N 15°13' E 067°03'513.7
2018-Apr-14 17:01N 15°09' E 067°07'713.6
2018-Apr-14 16:31N 15°04' E 067°11'8713.7
2018-Apr-14 10:10N 13°57' E 068°09'1914.2
2018-Apr-14 08:51N 13°43' E 068°21'714.1
2018-Apr-14 08:23N 13°38' E 068°25'914.1
2018-Apr-14 07:46N 13°31' E 068°31'414.1
2018-Apr-14 07:30N 13°28' E 068°33'1114.1
2018-Apr-14 06:44N 13°19' E 068°40'314.0
2018-Apr-14 06:29N 13°17' E 068°43'  

Dump ship's entire track history